Terminal Aerodrome Forecast
Issued by NWS

Home | Current Version | Previous Version | Text Only | Print | Product List | Glossary On
Versions: 1 2 3 4 5 6 7 8 9 10 11 12 13
796
FTPA31 PHFO 062334
TAFHJR
TAF
PHJR 062334Z 0700/0724 29007KT P6SM VCSH FEW020 SCT035 BKN050
     FM070400 28010KT P6SM FEW025 BKN050
     FM070800 34015KT 5SM SHRA BKN018 BKN040
     FM071000 34017G25KT P6SM VCSH SCT022 BKN045
     FM072000 35018G25KT P6SM FEW030 SCT050=

USA.gov is the U.S. government's official web portal to all federal, state and local government web resources and services.